createdAt,value
2018-04-13T00:00:04.817Z,15.84
2018-04-13T00:00:45.339Z,15.93
2018-04-13T00:01:25.852Z,15.94
2018-04-13T00:02:06.381Z,15.96
2018-04-13T00:02:46.928Z,15.86
2018-04-13T00:03:27.446Z,15.86
2018-04-13T00:04:07.965Z,16
2018-04-13T00:04:48.499Z,15.92
2018-04-13T00:05:29.002Z,15.86
2018-04-13T00:06:09.524Z,15.83
2018-04-13T00:06:50.049Z,15.83
2018-04-13T00:07:30.640Z,15.76
2018-04-13T00:08:11.149Z,15.69
2018-04-13T00:08:51.681Z,15.67
2018-04-13T00:09:32.190Z,15.74
2018-04-13T00:10:12.713Z,15.76
2018-04-13T00:10:53.227Z,15.69
2018-04-13T00:11:33.745Z,15.69
2018-04-13T00:12:14.260Z,15.64
2018-04-13T00:12:54.778Z,15.71
2018-04-13T00:13:35.292Z,15.87
2018-04-13T00:14:15.816Z,15.89
2018-04-13T00:14:56.345Z,15.92
2018-04-13T00:15:36.868Z,15.93
2018-04-13T00:16:17.382Z,15.84
2018-04-13T00:16:57.904Z,15.83
2018-04-13T00:17:38.422Z,15.83
2018-04-13T00:18:18.942Z,15.74
2018-04-13T00:18:59.458Z,15.72
2018-04-13T00:19:40.007Z,15.67
2018-04-13T00:20:20.516Z,15.74
2018-04-13T00:21:01.038Z,15.74
2018-04-13T00:21:41.548Z,15.74
2018-04-13T00:22:22.065Z,15.78
2018-04-13T00:23:02.585Z,15.75
2018-04-13T00:23:43.102Z,15.82
2018-04-13T00:24:23.620Z,15.74
2018-04-13T00:25:04.136Z,15.76
2018-04-13T00:25:44.651Z,15.78
2018-04-13T00:26:25.186Z,15.8
2018-04-13T00:27:05.707Z,15.76
2018-04-13T00:27:46.231Z,15.82
2018-04-13T00:28:26.743Z,15.74
2018-04-13T00:29:07.253Z,15.8
2018-04-13T00:29:47.771Z,15.8
2018-04-13T00:30:28.294Z,15.69
2018-04-13T00:31:08.805Z,15.74
2018-04-13T00:31:49.327Z,15.71
2018-04-13T00:32:29.848Z,15.71
2018-04-13T00:33:10.365Z,15.67
2018-04-13T00:33:50.897Z,15.65
2018-04-13T00:34:31.412Z,15.68
2018-04-13T00:35:11.923Z,15.65
2018-04-13T00:35:52.438Z,15.6
2018-04-13T00:36:32.955Z,15.54
2018-04-13T00:37:13.466Z,15.72
2018-04-13T00:37:53.981Z,15.82
2018-04-13T00:38:34.494Z,15.65
2018-04-13T00:39:15.007Z,15.75
2018-04-13T00:39:55.533Z,15.84
2018-04-13T00:40:36.047Z,15.84
2018-04-13T00:41:16.573Z,15.65
2018-04-13T00:41:57.089Z,15.57
2018-04-13T00:42:37.624Z,15.51
2018-04-13T00:43:18.137Z,15.5
2018-04-13T00:43:58.661Z,15.57
2018-04-13T00:44:39.173Z,15.69
2018-04-13T00:45:19.701Z,15.67
2018-04-13T00:46:00.213Z,15.72
2018-04-13T00:46:40.727Z,15.57
2018-04-13T00:47:21.255Z,15.54
2018-04-13T00:48:01.796Z,15.57
2018-04-13T00:48:42.302Z,15.69
2018-04-13T00:49:22.808Z,15.62
2018-04-13T00:50:03.337Z,15.6
2018-04-13T00:50:43.857Z,15.56
2018-04-13T00:51:24.365Z,15.56
2018-04-13T00:52:04.890Z,15.54
2018-04-13T00:52:45.423Z,15.39
2018-04-13T00:53:25.940Z,15.41
2018-04-13T00:54:06.463Z,15.44
2018-04-13T00:54:46.980Z,15.39
2018-04-13T00:55:27.515Z,15.49
2018-04-13T00:56:08.019Z,15.53
2018-04-13T00:56:48.539Z,15.53
2018-04-13T00:57:29.058Z,15.46
2018-04-13T00:58:09.582Z,15.34
2018-04-13T00:58:50.101Z,15.43
2018-04-13T00:59:30.625Z,15.38
2018-04-13T01:00:11.170Z,15.46
2018-04-13T01:00:51.676Z,15.5
2018-04-13T01:01:32.184Z,15.51
2018-04-13T01:02:12.706Z,15.5
2018-04-13T01:02:53.227Z,15.51
2018-04-13T01:03:33.747Z,15.5
2018-04-13T01:04:14.267Z,15.57
2018-04-13T01:04:54.790Z,15.47
2018-04-13T01:05:35.338Z,15.47
2018-04-13T01:06:15.858Z,15.5
2018-04-13T01:06:56.378Z,15.38
2018-04-13T01:07:36.904Z,15.34
2018-04-13T01:08:17.425Z,15.41
2018-04-13T01:08:57.949Z,15.46
2018-04-13T01:09:38.461Z,15.36
2018-04-13T01:10:18.986Z,15.39
2018-04-13T01:10:59.506Z,15.43
2018-04-13T01:11:40.023Z,15.51
2018-04-13T01:12:20.545Z,15.57
2018-04-13T01:13:01.066Z,15.6
2018-04-13T01:13:41.587Z,15.59
2018-04-13T01:14:22.103Z,15.57
2018-04-13T01:15:02.613Z,15.57
2018-04-13T01:15:43.135Z,15.54
2018-04-13T01:16:23.642Z,15.53
2018-04-13T01:17:04.157Z,15.62
2018-04-13T01:17:44.686Z,15.38
2018-04-13T01:18:25.198Z,15.39
2018-04-13T01:19:05.720Z,15.38
2018-04-13T01:19:46.235Z,15.44
2018-04-13T01:20:26.759Z,15.39
2018-04-13T01:21:07.304Z,15.36
2018-04-13T01:21:47.827Z,15.38
2018-04-13T01:22:28.341Z,15.53
2018-04-13T01:23:08.861Z,15.5
2018-04-13T01:23:49.384Z,15.46
2018-04-13T01:24:29.916Z,15.54
2018-04-13T01:25:10.435Z,15.53
2018-04-13T01:25:50.952Z,15.47
2018-04-13T01:26:31.478Z,15.35
2018-04-13T01:27:12.010Z,15.35
2018-04-13T01:27:52.525Z,15.44
2018-04-13T01:28:33.036Z,15.51
2018-04-13T01:29:13.549Z,15.51
2018-04-13T01:29:54.109Z,15.46
2018-04-13T01:30:34.640Z,15.41
2018-04-13T01:31:15.149Z,15.39
2018-04-13T01:31:55.677Z,15.51
2018-04-13T01:32:36.198Z,15.47
2018-04-13T01:33:16.723Z,15.35
2018-04-13T01:33:57.244Z,15.38
2018-04-13T01:34:37.753Z,15.39
2018-04-13T01:35:18.275Z,15.43
2018-04-13T01:35:58.795Z,15.38
2018-04-13T01:36:39.321Z,15.23
2018-04-13T01:37:19.841Z,15.17
2018-04-13T01:38:00.351Z,15.02
2018-04-13T01:38:40.880Z,15.1
2018-04-13T01:39:21.381Z,15.13
2018-04-13T01:40:01.900Z,15.02
2018-04-13T01:40:42.431Z,15.01
2018-04-13T01:41:22.950Z,15.09
2018-04-13T01:42:03.461Z,15.03
2018-04-13T01:42:43.982Z,15.07
2018-04-13T01:43:24.504Z,15.03
2018-04-13T01:44:05.012Z,15.19
2018-04-13T01:44:45.542Z,15.17
2018-04-13T01:45:26.086Z,15.03
2018-04-13T01:46:06.596Z,15.25
2018-04-13T01:46:47.119Z,15.29
2018-04-13T01:47:27.634Z,15.25
2018-04-13T01:48:08.157Z,15.23
2018-04-13T01:48:48.682Z,15.11
2018-04-13T01:49:29.195Z,15.21
2018-04-13T01:50:09.714Z,15.2
2018-04-13T01:50:50.233Z,15.13
2018-04-13T01:51:30.744Z,15.25
2018-04-13T01:52:11.264Z,15.2
2018-04-13T01:52:51.783Z,15.14
2018-04-13T01:53:32.303Z,15.2
2018-04-13T01:54:12.816Z,15.07
2018-04-13T01:54:53.336Z,15.14
2018-04-13T01:55:33.850Z,15.19
2018-04-13T01:56:14.368Z,15.06
2018-04-13T01:56:54.882Z,15.03
2018-04-13T01:57:35.391Z,15.09
2018-04-13T01:58:15.915Z,15.01
2018-04-13T01:58:56.439Z,15.03
2018-04-13T01:59:36.955Z,15.03
2018-04-13T02:00:17.483Z,15.02
2018-04-13T02:00:58.011Z,15.11
2018-04-13T02:01:38.529Z,15.25
2018-04-13T02:02:19.041Z,15.35
2018-04-13T02:02:59.541Z,15.32
2018-04-13T02:03:40.075Z,15.29
2018-04-13T02:04:20.590Z,15.21
2018-04-13T02:05:01.112Z,15.32
2018-04-13T02:05:41.648Z,15.36
2018-04-13T02:06:22.159Z,15.38
2018-04-13T02:07:02.669Z,15.29
2018-04-13T02:07:43.186Z,15.2
2018-04-13T02:08:23.703Z,15.23
2018-04-13T02:09:04.219Z,15.36
2018-04-13T02:09:44.742Z,15.31
2018-04-13T02:10:25.268Z,15.29
2018-04-13T02:11:05.773Z,15.06
2018-04-13T02:11:46.290Z,15.09
2018-04-13T02:12:26.804Z,15.01
2018-04-13T02:13:07.394Z,15.06
2018-04-13T02:13:47.877Z,15.03
2018-04-13T02:14:28.396Z,15.07
2018-04-13T02:15:08.919Z,15.11
2018-04-13T02:15:49.435Z,15.06
2018-04-13T02:16:29.947Z,15.03
2018-04-13T02:17:10.479Z,15.07
2018-04-13T02:17:50.993Z,15.09
2018-04-13T02:18:31.507Z,15.06
2018-04-13T02:19:12.026Z,15.1
2018-04-13T02:19:52.542Z,15.02
2018-04-13T02:20:33.051Z,15.03
2018-04-13T02:21:13.575Z,15.02
2018-04-13T02:21:54.103Z,15.06
2018-04-13T02:22:34.617Z,15.06
2018-04-13T02:23:15.132Z,15.03
2018-04-13T02:23:55.650Z,15.13
2018-04-13T02:24:36.168Z,15.1
2018-04-13T02:25:16.692Z,15.13
2018-04-13T02:25:57.214Z,15.06
2018-04-13T02:26:37.739Z,14.96
2018-04-13T02:27:18.257Z,15.01
2018-04-13T02:27:58.791Z,15.03
2018-04-13T02:28:39.295Z,14.91
2018-04-13T02:29:19.820Z,14.94
2018-04-13T02:30:00.347Z,15.07
2018-04-13T02:30:40.866Z,15.06
2018-04-13T02:31:21.388Z,15.09
2018-04-13T02:32:01.892Z,15.03
2018-04-13T02:32:42.411Z,15.06
2018-04-13T02:33:22.933Z,15.02
2018-04-13T02:34:03.450Z,15.02
2018-04-13T02:34:43.970Z,15.03
2018-04-13T02:35:24.489Z,14.92
2018-04-13T02:36:05.016Z,14.92
2018-04-13T02:36:45.522Z,14.99
2018-04-13T02:37:26.042Z,14.98
2018-04-13T02:38:06.551Z,15.01
2018-04-13T02:38:47.072Z,14.88
2018-04-13T02:39:27.584Z,14.88
2018-04-13T02:40:08.105Z,14.84
2018-04-13T02:40:48.619Z,14.83
2018-04-13T02:41:29.144Z,14.91
2018-04-13T02:42:09.663Z,15.03
2018-04-13T02:42:50.193Z,14.96
2018-04-13T02:43:30.709Z,14.94
2018-04-13T02:44:11.233Z,15.01
2018-04-13T02:44:51.731Z,14.92
2018-04-13T02:45:32.254Z,14.99
2018-04-13T02:46:12.784Z,14.89
2018-04-13T02:46:53.306Z,14.88
2018-04-13T02:47:33.818Z,14.86
2018-04-13T02:48:14.334Z,14.98
2018-04-13T02:48:54.855Z,14.99
2018-04-13T02:49:35.404Z,15.02
2018-04-13T02:50:15.877Z,15.1
2018-04-13T02:50:56.398Z,15.06
2018-04-13T02:51:36.961Z,15.02
2018-04-13T02:52:17.441Z,15.09
2018-04-13T02:52:57.980Z,15.02
2018-04-13T02:53:38.505Z,14.99
2018-04-13T02:54:19.026Z,15.02
2018-04-13T02:54:59.536Z,14.94
2018-04-13T02:55:40.061Z,14.94
2018-04-13T02:56:20.577Z,14.95
2018-04-13T02:57:01.104Z,14.88
2018-04-13T02:57:41.616Z,14.84
2018-04-13T02:58:22.136Z,14.69
2018-04-13T02:59:02.649Z,14.75
2018-04-13T02:59:43.198Z,14.68
2018-04-13T03:00:23.704Z,14.47
2018-04-13T03:01:04.224Z,14.52
2018-04-13T03:01:44.745Z,14.51
2018-04-13T03:02:25.266Z,14.52
2018-04-13T03:03:05.783Z,14.6
2018-04-13T03:03:46.297Z,14.68
2018-04-13T03:04:26.810Z,14.8
2018-04-13T03:05:07.326Z,14.89
2018-04-13T03:05:47.844Z,14.88
2018-04-13T03:06:28.368Z,15.07
2018-04-13T03:07:08.888Z,14.94
2018-04-13T03:07:49.412Z,14.86
2018-04-13T03:08:29.932Z,14.83
2018-04-13T03:09:10.458Z,15.02
2018-04-13T03:09:50.980Z,14.86
2018-04-13T03:10:31.512Z,14.95
2018-04-13T03:11:12.034Z,14.86
2018-04-13T03:11:52.568Z,14.88
2018-04-13T03:12:33.079Z,15.01
2018-04-13T03:13:13.601Z,15.02
2018-04-13T03:13:54.136Z,14.86
2018-04-13T03:14:34.653Z,14.78
2018-04-13T03:15:15.160Z,14.77
2018-04-13T03:15:55.688Z,14.88
2018-04-13T03:16:36.208Z,14.98
2018-04-13T03:17:16.731Z,14.92
2018-04-13T03:17:57.246Z,14.91
2018-04-13T03:18:37.762Z,14.84
2018-04-13T03:19:18.272Z,15.02
2018-04-13T03:19:58.809Z,14.89
2018-04-13T03:20:39.338Z,14.78
2018-04-13T03:21:19.864Z,14.78
2018-04-13T03:22:00.385Z,14.88
2018-04-13T03:22:40.901Z,14.94
2018-04-13T03:23:21.414Z,14.88
2018-04-13T03:24:01.947Z,14.8
2018-04-13T03:24:42.460Z,14.77
2018-04-13T03:25:22.976Z,14.75
2018-04-13T03:26:03.490Z,14.81
2018-04-13T03:26:44.021Z,14.77
2018-04-13T03:27:24.532Z,14.91
2018-04-13T03:28:05.041Z,14.99
2018-04-13T03:28:45.559Z,14.94
2018-04-13T03:29:26.085Z,15.06
2018-04-13T03:30:06.596Z,15.1
2018-04-13T03:30:47.137Z,15.03
2018-04-13T03:31:27.649Z,15.06
2018-04-13T03:32:08.161Z,14.83
2018-04-13T03:32:48.682Z,14.8
2018-04-13T03:33:29.202Z,14.91
2018-04-13T03:34:09.719Z,14.92
2018-04-13T03:34:50.234Z,14.81
2018-04-13T03:35:30.747Z,14.86
2018-04-13T03:36:11.262Z,14.86
2018-04-13T03:36:51.773Z,14.83
2018-04-13T03:37:32.290Z,14.84
2018-04-13T03:38:12.815Z,14.81
2018-04-13T03:38:53.331Z,14.94
2018-04-13T03:39:33.850Z,14.88
2018-04-13T03:40:14.364Z,14.91
2018-04-13T03:40:54.884Z,14.92
2018-04-13T03:41:35.421Z,14.86
2018-04-13T03:42:15.936Z,14.96
2018-04-13T03:42:56.466Z,14.92
2018-04-13T03:43:36.984Z,14.86
2018-04-13T03:44:17.496Z,14.91
2018-04-13T03:44:58.017Z,14.94
2018-04-13T03:45:38.533Z,15.02
2018-04-13T03:46:19.051Z,14.88
2018-04-13T03:46:59.561Z,14.95
2018-04-13T03:47:40.086Z,14.96
2018-04-13T03:48:20.594Z,14.98
2018-04-13T03:49:01.122Z,15.01
2018-04-13T03:49:41.637Z,14.84
2018-04-13T03:50:22.155Z,14.83
2018-04-13T03:51:02.685Z,14.89
2018-04-13T03:51:43.201Z,14.91
2018-04-13T03:52:23.713Z,14.89
2018-04-13T03:53:04.232Z,14.86
2018-04-13T03:53:44.755Z,14.77
2018-04-13T03:54:25.340Z,14.91
2018-04-13T03:55:05.797Z,15.03
2018-04-13T03:55:46.311Z,14.83
2018-04-13T03:56:26.832Z,14.94
2018-04-13T03:57:07.361Z,15.03
2018-04-13T03:57:47.883Z,14.91
2018-04-13T03:58:28.407Z,14.91
2018-04-13T03:59:08.921Z,14.91
2018-04-13T03:59:49.443Z,14.84
2018-04-13T04:00:29.971Z,14.89
2018-04-13T04:01:10.504Z,14.92
2018-04-13T04:01:51.014Z,14.88
2018-04-13T04:02:31.534Z,14.81
2018-04-13T04:03:12.039Z,14.8
2018-04-13T04:03:52.591Z,14.78
2018-04-13T04:04:33.119Z,14.8
2018-04-13T04:05:13.644Z,14.81
2018-04-13T04:05:54.164Z,14.75
2018-04-13T04:06:34.684Z,14.83
2018-04-13T04:07:15.205Z,14.83
2018-04-13T04:07:55.713Z,14.73
2018-04-13T04:08:36.235Z,14.69
2018-04-13T04:09:16.739Z,14.51
2018-04-13T04:09:57.259Z,14.51
2018-04-13T04:10:37.777Z,14.6
2018-04-13T04:11:18.297Z,14.58
2018-04-13T04:11:58.813Z,14.46
2018-04-13T04:12:39.346Z,14.5
2018-04-13T04:13:19.899Z,14.47
2018-04-13T04:14:00.404Z,14.51
2018-04-13T04:14:40.921Z,14.5
2018-04-13T04:15:21.444Z,14.43
2018-04-13T04:16:01.953Z,14.57
2018-04-13T04:16:42.467Z,14.52
2018-04-13T04:17:22.990Z,14.52
2018-04-13T04:18:03.507Z,14.5
2018-04-13T04:18:44.035Z,14.5
2018-04-13T04:19:24.538Z,14.46
2018-04-13T04:20:05.068Z,14.4
2018-04-13T04:20:45.575Z,14.5
2018-04-13T04:21:26.101Z,14.47
2018-04-13T04:22:06.619Z,14.6
2018-04-13T04:22:47.127Z,14.58
2018-04-13T04:23:27.636Z,14.62
2018-04-13T04:24:08.167Z,14.6
2018-04-13T04:24:48.666Z,14.75
2018-04-13T04:25:29.192Z,14.8
2018-04-13T04:26:09.714Z,14.78
2018-04-13T04:26:50.223Z,14.73
2018-04-13T04:27:30.741Z,14.83
2018-04-13T04:28:11.274Z,14.61
2018-04-13T04:28:51.787Z,14.69
2018-04-13T04:29:32.312Z,14.6
2018-04-13T04:30:12.831Z,14.7
2018-04-13T04:30:53.349Z,14.69
2018-04-13T04:31:33.882Z,14.69
2018-04-13T04:32:14.405Z,14.61
2018-04-13T04:32:54.921Z,14.37
2018-04-13T04:33:35.436Z,14.45
2018-04-13T04:34:15.958Z,14.47
2018-04-13T04:34:56.474Z,14.5
2018-04-13T04:35:36.996Z,14.5
2018-04-13T04:36:17.510Z,14.57
2018-04-13T04:36:58.037Z,14.54
2018-04-13T04:37:38.555Z,14.54
2018-04-13T04:38:19.071Z,14.52
2018-04-13T04:38:59.583Z,14.6
2018-04-13T04:39:40.102Z,14.58
2018-04-13T04:40:20.605Z,14.57
2018-04-13T04:41:01.128Z,14.62
2018-04-13T04:41:41.646Z,14.64
2018-04-13T04:42:22.170Z,14.68
2018-04-13T04:43:02.679Z,14.57
2018-04-13T04:43:43.197Z,14.47
2018-04-13T04:44:23.710Z,14.37
2018-04-13T04:45:04.284Z,14.39
2018-04-13T04:45:44.797Z,14.5
2018-04-13T04:46:25.305Z,14.64
2018-04-13T04:47:05.825Z,14.65
2018-04-13T04:47:46.349Z,14.62
2018-04-13T04:48:26.864Z,14.65
2018-04-13T04:49:07.387Z,14.64
2018-04-13T04:49:47.903Z,14.7
2018-04-13T04:50:28.416Z,14.68
2018-04-13T04:51:08.934Z,14.58
2018-04-13T04:51:49.455Z,14.64
2018-04-13T04:52:29.971Z,14.51
2018-04-13T04:53:10.481Z,14.55
2018-04-13T04:53:51.014Z,14.62
2018-04-13T04:54:31.529Z,14.65
2018-04-13T04:55:12.051Z,14.69
2018-04-13T04:55:52.571Z,14.68
2018-04-13T04:56:33.085Z,14.69
2018-04-13T04:57:13.602Z,14.69
2018-04-13T04:57:54.124Z,14.73
2018-04-13T04:58:34.656Z,14.77
2018-04-13T04:59:15.175Z,14.83
2018-04-13T04:59:55.695Z,14.78
2018-04-13T05:00:36.243Z,14.78
2018-04-13T05:01:16.755Z,14.75
2018-04-13T05:01:57.326Z,14.75
2018-04-13T05:02:37.844Z,14.68
2018-04-13T05:03:18.356Z,14.64
2018-04-13T05:03:58.872Z,14.64
2018-04-13T05:04:39.394Z,14.47
2018-04-13T05:05:19.923Z,14.62
2018-04-13T05:06:00.427Z,14.61
2018-04-13T05:06:40.957Z,14.5
2018-04-13T05:07:21.474Z,14.5
2018-04-13T05:08:01.997Z,14.62
2018-04-13T05:08:42.528Z,14.6
2018-04-13T05:09:23.041Z,14.7
2018-04-13T05:10:03.559Z,14.73
2018-04-13T05:10:44.073Z,14.68
2018-04-13T05:11:24.591Z,14.68
2018-04-13T05:12:05.167Z,14.7
2018-04-13T05:12:45.639Z,14.54
2018-04-13T05:13:26.171Z,14.61
2018-04-13T05:14:06.711Z,14.61
2018-04-13T05:14:47.243Z,14.72
2018-04-13T05:15:27.763Z,14.8
2018-04-13T05:16:08.288Z,14.77
2018-04-13T05:16:48.800Z,14.84
2018-04-13T05:17:29.321Z,14.84
2018-04-13T05:18:09.845Z,14.86
2018-04-13T05:18:50.353Z,14.86
2018-04-13T05:19:30.884Z,14.89
2018-04-13T05:20:11.407Z,15.01
2018-04-13T05:20:51.928Z,14.88
2018-04-13T05:21:32.468Z,15.02
2018-04-13T05:22:13.020Z,14.98
2018-04-13T05:22:53.542Z,14.94
2018-04-13T05:23:34.071Z,15.09
2018-04-13T05:24:14.591Z,15.07
2018-04-13T05:24:55.290Z,15.01
2018-04-13T05:25:35.801Z,14.98
2018-04-13T05:26:16.325Z,15.06
2018-04-13T05:26:56.875Z,15.21
2018-04-13T05:27:37.385Z,15.2
2018-04-13T05:28:17.896Z,15.17
2018-04-13T05:28:58.414Z,15.31
2018-04-13T05:29:38.960Z,15.32
2018-04-13T05:30:19.475Z,15.36
2018-04-13T05:31:00.027Z,15.35
2018-04-13T05:31:40.528Z,15.38
2018-04-13T05:32:21.055Z,15.38
2018-04-13T05:33:01.620Z,15.47
2018-04-13T05:33:42.128Z,15.46
2018-04-13T05:34:22.650Z,15.59
2018-04-13T05:35:03.170Z,15.57
2018-04-13T05:35:43.685Z,15.59
2018-04-13T05:36:24.232Z,15.6
2018-04-13T05:37:04.752Z,15.57
2018-04-13T05:37:45.294Z,15.56
2018-04-13T05:38:25.854Z,15.54
2018-04-13T05:39:06.396Z,15.57
2018-04-13T05:39:46.998Z,15.49
2018-04-13T05:40:27.512Z,15.35
2018-04-13T05:41:08.045Z,15.34
2018-04-13T05:41:48.555Z,15.43
2018-04-13T05:42:29.052Z,15.57
2018-04-13T05:43:09.782Z,15.56
2018-04-13T05:43:50.335Z,15.62
2018-04-13T05:44:30.861Z,15.68
2018-04-13T05:45:11.390Z,15.43
2018-04-13T05:45:51.920Z,15.53
2018-04-13T05:46:32.413Z,15.62
2018-04-13T05:47:12.940Z,15.68
2018-04-13T05:47:53.489Z,15.57
2018-04-13T05:48:34.049Z,15.75
2018-04-13T05:49:14.537Z,15.86
2018-04-13T05:49:55.068Z,15.68
2018-04-13T05:50:35.611Z,15.76
2018-04-13T05:51:16.199Z,15.75
2018-04-13T05:51:56.732Z,15.8
2018-04-13T05:52:37.246Z,15.87
2018-04-13T05:53:17.794Z,15.87
2018-04-13T05:53:58.315Z,15.87
2018-04-13T05:54:38.906Z,15.83
2018-04-13T05:55:19.422Z,15.74
2018-04-13T05:55:59.962Z,15.65
2018-04-13T05:57:48.080Z,15.78
2018-04-13T05:58:28.614Z,15.76
2018-04-13T05:59:09.142Z,16.05
2018-04-13T05:59:49.658Z,16.14
2018-04-13T06:00:30.180Z,16.42
2018-04-13T06:01:10.690Z,16.31
2018-04-13T06:01:51.211Z,16.58
2018-04-13T06:02:31.841Z,16.33
2018-04-13T06:03:12.348Z,16.41
2018-04-13T06:03:52.869Z,16.42
2018-04-13T06:04:33.390Z,16.5
2018-04-13T06:05:13.920Z,16.73
2018-04-13T06:05:54.431Z,16.83
2018-04-13T06:06:34.953Z,16.49
2018-04-13T06:07:15.483Z,16.43
2018-04-13T06:07:56.015Z,16.41
2018-04-13T06:08:36.522Z,16.5
2018-04-13T06:09:17.063Z,16.83
2018-04-13T06:09:59.187Z,16.81
2018-04-13T06:10:39.705Z,16.56
2018-04-13T06:11:20.227Z,16.48
2018-04-13T06:12:00.751Z,16.56
2018-04-13T06:12:41.275Z,16.68
2018-04-13T06:13:21.811Z,16.56
2018-04-13T06:14:02.319Z,16.56
2018-04-13T06:14:42.835Z,16.42
2018-04-13T06:15:23.360Z,16.41
2018-04-13T06:16:03.881Z,16.7
2018-04-13T06:16:44.397Z,16.76
2018-04-13T06:17:24.906Z,16.89
2018-04-13T06:18:05.420Z,16.71
2018-04-13T06:18:46.829Z,16.6
2018-04-13T06:19:26.520Z,16.38
2018-04-13T06:20:07.068Z,16.45
2018-04-13T06:20:47.584Z,16.49
2018-04-13T06:21:28.093Z,16.57
2018-04-13T06:22:08.612Z,16.56
2018-04-13T06:22:49.141Z,16.42
2018-04-13T06:23:29.650Z,16.5
2018-04-13T06:24:10.314Z,16.56
2018-04-13T06:24:50.761Z,16.71
2018-04-13T06:25:31.273Z,16.68
2018-04-13T06:26:11.919Z,16.49
2018-04-13T06:26:52.439Z,16.41
2018-04-13T06:27:32.964Z,16.5
2018-04-13T06:28:13.478Z,16.52
2018-04-13T06:28:54.070Z,16.6
2018-04-13T06:29:34.594Z,16.6
2018-04-13T06:30:15.190Z,16.71
2018-04-13T06:30:55.673Z,16.76
2018-04-13T06:31:36.195Z,16.79
2018-04-13T06:32:16.709Z,16.73
2018-04-13T06:32:57.214Z,16.75
2018-04-13T06:33:37.731Z,16.66
2018-04-13T06:34:18.239Z,16.56
2018-04-13T06:34:58.750Z,16.67
2018-04-13T06:35:39.398Z,16.78
2018-04-13T06:36:19.897Z,16.64
2018-04-13T06:37:00.427Z,16.75
2018-04-13T06:37:40.933Z,16.73
2018-04-13T06:38:21.427Z,16.6
2018-04-13T06:39:01.944Z,16.45
2018-04-13T06:39:42.494Z,16.45
2018-04-13T06:40:22.987Z,16.15
2018-04-13T06:41:03.486Z,16.28
2018-04-13T06:41:44.007Z,16.39
2018-04-13T06:42:24.529Z,16.34
2018-04-13T06:43:05.042Z,16.43
2018-04-13T06:43:45.581Z,16.73
2018-04-13T06:44:26.083Z,16.79
2018-04-13T06:45:06.617Z,17.07
2018-04-13T06:45:47.128Z,17.11
2018-04-13T06:46:27.695Z,16.85
2018-04-13T06:47:08.215Z,16.98
2018-04-13T06:47:48.720Z,17.25
2018-04-13T06:48:29.239Z,17.12
2018-04-13T06:49:09.758Z,17.06
2018-04-13T06:49:50.271Z,17.26
2018-04-13T06:50:30.813Z,17.36
2018-04-13T06:51:11.337Z,17.41
2018-04-13T06:51:51.830Z,17.58
2018-04-13T06:52:32.354Z,17.56
2018-04-13T06:53:12.878Z,17.56
2018-04-13T06:53:53.437Z,17.64
2018-04-13T06:54:33.957Z,17.37
2018-04-13T06:55:14.479Z,17.44
2018-04-13T06:55:55.006Z,17.62
2018-04-13T06:56:35.555Z,17.48
2018-04-13T06:57:16.190Z,17.56
2018-04-13T06:57:56.720Z,17.68
2018-04-13T06:58:37.246Z,17.71
2018-04-13T06:59:17.761Z,17.71
2018-04-13T06:59:58.280Z,17.74
2018-04-13T07:00:38.831Z,17.78
2018-04-13T07:02:26.887Z,17.66
2018-04-13T07:03:07.454Z,17.71
2018-04-13T07:03:47.964Z,17.55
2018-04-13T07:04:28.445Z,17.52
2018-04-13T07:05:08.949Z,17.43
2018-04-13T07:05:49.472Z,17.41
2018-04-13T07:06:30.034Z,17.38
2018-04-13T07:07:10.548Z,17.22
2018-04-13T07:07:51.063Z,17.11
2018-04-13T07:08:31.592Z,16.96
2018-04-13T07:09:12.128Z,16.81
2018-04-13T07:09:52.625Z,16.81
2018-04-13T07:10:33.142Z,16.85
2018-04-13T07:11:13.716Z,16.88
2018-04-13T07:11:54.311Z,16.89
2018-04-13T07:12:34.835Z,17.03
2018-04-13T07:13:15.345Z,16.73
2018-04-13T07:13:55.894Z,16.79
2018-04-13T07:14:36.411Z,16.82
2018-04-13T07:15:16.924Z,16.97
2018-04-13T07:15:57.450Z,16.88
2018-04-13T07:16:37.963Z,16.88
2018-04-13T07:17:18.487Z,16.85
2018-04-13T07:17:59.014Z,16.79
2018-04-13T07:18:39.538Z,16.68
2018-04-13T07:19:20.077Z,16.79
2018-04-13T07:20:00.648Z,16.88
2018-04-13T07:20:41.189Z,17.06
2018-04-13T07:21:21.685Z,17.08
2018-04-13T07:22:02.234Z,17.03
2018-04-13T07:22:42.761Z,17.08
2018-04-13T07:23:23.278Z,17.07
2018-04-13T07:24:03.796Z,17.03
2018-04-13T07:24:44.290Z,17.14
2018-04-13T07:25:24.800Z,17.21
2018-04-13T07:26:05.592Z,17.38
2018-04-13T07:26:46.179Z,17.4
2018-04-13T07:27:26.638Z,17.48
2018-04-13T07:28:07.153Z,17.41
2018-04-13T07:28:47.674Z,17.59
2018-04-13T07:29:28.191Z,17.43
2018-04-13T07:30:08.725Z,17.55
2018-04-13T07:30:49.221Z,17.55
2018-04-13T07:31:29.719Z,17.71
2018-04-13T07:32:10.232Z,17.81
2018-04-13T07:32:50.741Z,17.95
2018-04-13T07:33:31.266Z,17.9
2018-04-13T07:34:11.896Z,17.68
2018-04-13T07:34:52.287Z,17.72
2018-04-13T07:35:32.807Z,17.52
2018-04-13T07:36:13.310Z,17.43
2018-04-13T07:36:53.838Z,17.4
2018-04-13T07:37:34.355Z,17.43
2018-04-13T07:38:14.872Z,17.48
2018-04-13T07:38:55.537Z,17.63
2018-04-13T07:39:35.949Z,17.75
2018-04-13T07:40:16.433Z,17.68
2018-04-13T07:40:56.982Z,17.72
2018-04-13T07:41:37.506Z,17.92
2018-04-13T07:42:18.022Z,17.74
2018-04-13T07:42:58.549Z,17.77
2018-04-13T07:43:39.051Z,17.56
2018-04-13T07:44:19.580Z,17.72
2018-04-13T07:45:00.154Z,17.72
2018-04-13T07:45:40.600Z,17.78
2018-04-13T07:46:21.113Z,17.49
2018-04-13T07:47:01.628Z,17.49
2018-04-13T07:47:42.152Z,17.51
2018-04-13T07:48:22.657Z,17.49
2018-04-13T07:49:03.189Z,17.48
2018-04-13T07:49:43.714Z,17.52
2018-04-13T07:50:24.227Z,17.51
2018-04-13T07:51:04.761Z,17.41
2018-04-13T07:51:45.252Z,17.37
2018-04-13T07:52:25.759Z,17.04
2018-04-13T07:53:06.223Z,17
2018-04-13T07:53:46.684Z,17.12
2018-04-13T07:54:27.167Z,16.98
2018-04-13T07:55:07.629Z,16.97
2018-04-13T07:55:48.196Z,16.98
2018-04-13T07:56:28.620Z,17.06
2018-04-13T07:57:09.224Z,17.12
2018-04-13T07:57:49.722Z,17.03
2018-04-13T07:58:30.252Z,17.08
2018-04-13T07:59:10.705Z,17.23
2018-04-13T07:59:51.666Z,17.21
2018-04-13T08:00:31.714Z,17.19
2018-04-13T08:01:12.227Z,17.23
2018-04-13T08:01:53.103Z,17.31
2018-04-13T08:02:33.265Z,17.31
2018-04-13T08:03:13.782Z,17.36
2018-04-13T08:03:54.306Z,17.36
2018-04-13T08:04:34.813Z,17.38
2018-04-13T08:05:15.331Z,17.21
2018-04-13T08:05:55.856Z,17.16
2018-04-13T08:06:36.374Z,17.16
2018-04-13T08:07:16.898Z,17.28
2018-04-13T08:07:57.391Z,17.25
2018-04-13T08:08:37.921Z,17.12
2018-04-13T08:09:18.440Z,17.44
2018-04-13T08:09:58.944Z,17.48
2018-04-13T08:10:39.461Z,17.49
2018-04-13T08:11:19.961Z,17.54
2018-04-13T08:12:00.530Z,17.7
2018-04-13T08:12:40.975Z,17.7
2018-04-13T08:13:21.579Z,17.78
2018-04-13T08:14:01.932Z,17.75
2018-04-13T08:14:42.463Z,17.74
2018-04-13T08:15:22.972Z,17.75
2018-04-13T08:16:03.519Z,17.72
2018-04-13T08:16:44.009Z,17.75
2018-04-13T08:17:24.522Z,17.78
2018-04-13T08:18:05.122Z,17.74
2018-04-13T08:18:45.580Z,17.9
2018-04-13T08:19:26.091Z,17.77
2018-04-13T08:20:06.601Z,17.72
2018-04-13T08:20:47.128Z,17.68
2018-04-13T08:21:27.664Z,17.68
2018-04-13T08:22:08.207Z,17.66
2018-04-13T08:22:48.727Z,17.55
2018-04-13T08:23:29.238Z,17.66
2018-04-13T08:24:09.772Z,17.62
2018-04-13T08:24:50.295Z,17.77
2018-04-13T08:25:30.819Z,17.79
2018-04-13T08:26:11.339Z,17.93
2018-04-13T08:26:51.859Z,17.78
2018-04-13T08:27:32.382Z,18
2018-04-13T08:28:12.913Z,18.02
2018-04-13T08:28:53.417Z,18.07
2018-04-13T08:29:33.929Z,17.97
2018-04-13T08:30:14.444Z,17.95
2018-04-13T08:30:54.961Z,18.05
2018-04-13T08:31:35.521Z,18.14
2018-04-13T08:32:16.073Z,18.08
2018-04-13T08:32:56.583Z,18.07
2018-04-13T08:33:37.114Z,18.11
2018-04-13T08:34:17.638Z,18.08
2018-04-13T08:34:58.161Z,18.05
2018-04-13T08:35:38.797Z,18.1
2018-04-13T08:36:19.184Z,18.07
2018-04-13T08:36:59.716Z,18.08
2018-04-13T08:37:40.265Z,17.87
2018-04-13T08:38:20.779Z,17.96
2018-04-13T08:39:01.295Z,17.92
2018-04-13T08:39:41.810Z,17.97
2018-04-13T08:40:22.316Z,18.03
2018-04-13T08:41:02.815Z,17.97
2018-04-13T08:41:43.333Z,17.92
2018-04-13T08:42:23.900Z,18.1
2018-04-13T08:43:04.424Z,18.18
2018-04-13T08:43:44.929Z,18.3
2018-04-13T08:44:25.423Z,18.25
2018-04-13T08:45:05.967Z,18.36
2018-04-13T08:45:46.465Z,18.37